createdAt,value
2018-05-21T00:00:58.844Z,99245.81
2018-05-21T00:03:28.272Z,99249.77
2018-05-21T00:05:56.628Z,99244.16
2018-05-21T00:08:26.371Z,99242.32
2018-05-21T00:10:55.730Z,99236.30
2018-05-21T00:13:24.064Z,99238.52
2018-05-21T00:15:52.729Z,99235.31
2018-05-21T00:18:22.118Z,99238.80
2018-05-21T00:20:50.474Z,99235.88
2018-05-21T00:23:19.029Z,99237.48
2018-05-21T00:25:48.224Z,99231.10
2018-05-21T00:28:16.600Z,99229.22
2018-05-21T00:30:44.959Z,99239.27
2018-05-21T00:33:13.373Z,99239.30
2018-05-21T00:35:42.976Z,99232.81
2018-05-21T00:38:11.787Z,99241.23
2018-05-21T00:40:40.843Z,99228.41
2018-05-21T00:43:09.997Z,99228.19
2018-05-21T00:45:38.361Z,99226.72
2018-05-21T00:48:06.793Z,99225.18
2018-05-21T00:50:35.445Z,99225.89
2018-05-21T00:53:03.796Z,99224.39
2018-05-21T00:55:38.373Z,99215.75
2018-05-21T00:58:07.458Z,99221.96
2018-05-21T01:00:36.446Z,99219.13
2018-05-21T01:03:04.809Z,99214.48
2018-05-21T01:05:33.145Z,99220.56
2018-05-21T01:08:01.530Z,99217.05
2018-05-21T01:10:29.862Z,99220.70
2018-05-21T01:12:58.278Z,99214.08
2018-05-21T01:15:26.608Z,99213.55
2018-05-21T01:17:55.777Z,99213.17
2018-05-21T01:20:24.718Z,99219.07
2018-05-21T01:22:53.141Z,99215.78
2018-05-21T01:25:22.341Z,99218.20
2018-05-21T01:27:50.785Z,99217.94
2018-05-21T01:30:19.161Z,99216.17
2018-05-21T01:32:48.265Z,99217.31
2018-05-21T01:35:16.601Z,99209.92
2018-05-21T01:37:45.394Z,99211.41
2018-05-21T01:40:13.724Z,99213.37
2018-05-21T01:42:42.089Z,99207.80
2018-05-21T01:45:10.436Z,99207.35
2018-05-21T01:47:39.565Z,99208.69
2018-05-21T01:50:07.906Z,99209.90
2018-05-21T01:52:36.256Z,99207.27
2018-05-21T01:55:05.301Z,99209.16
2018-05-21T01:57:33.652Z,99203.66
2018-05-21T02:00:01.993Z,99207.12
2018-05-21T02:02:30.375Z,99199.53
2018-05-21T02:04:58.725Z,99204.52
2018-05-21T02:07:27.496Z,99197.25
2018-05-21T02:09:56.957Z,99200.20
2018-05-21T02:12:26.214Z,99207.23
2018-05-21T02:14:54.561Z,99201.83
2018-05-21T02:17:22.947Z,99197.98
2018-05-21T02:19:53.050Z,99199.16
2018-05-21T02:22:21.389Z,99197.59
2018-05-21T02:24:50.631Z,99191.93
2018-05-21T02:27:19.309Z,99188.09
2018-05-21T02:29:48.310Z,99197.92
2018-05-21T02:32:17.621Z,99195.34
2018-05-21T02:34:46.352Z,99192.33
2018-05-21T02:37:15.101Z,99196.13
2018-05-21T02:39:43.597Z,99198.05
2018-05-21T02:42:12.562Z,99191.91
2018-05-21T02:44:41.681Z,99197.50
2018-05-21T02:47:10.333Z,99191.28
2018-05-21T02:49:38.913Z,99188.13
2018-05-21T02:52:07.370Z,99183.28
2018-05-21T02:54:35.777Z,99177.56
2018-05-21T02:57:04.123Z,99175.61
2018-05-21T02:59:32.486Z,99174.80
2018-05-21T03:02:00.855Z,99172.03
2018-05-21T03:04:29.946Z,99173.69
2018-05-21T03:06:58.457Z,99167.22
2018-05-21T03:09:28.258Z,99173.46
2018-05-21T03:11:57.797Z,99170.09
2018-05-21T03:14:26.861Z,99169.91
2018-05-21T03:16:56.505Z,99170.27
2018-05-21T03:19:24.857Z,99169.61
2018-05-21T03:21:54.125Z,99171.44
2018-05-21T03:24:22.475Z,99178.69
2018-05-21T03:26:50.846Z,99174.00
2018-05-21T03:29:19.200Z,99172.59
2018-05-21T03:31:48.473Z,99164.90
2018-05-21T03:34:16.805Z,99174.34
2018-05-21T03:36:45.169Z,99172.34
2018-05-21T03:39:13.572Z,99169.45
2018-05-21T03:41:41.922Z,99169.25
2018-05-21T03:44:10.301Z,99166.69
2018-05-21T03:46:39.300Z,99172.02
2018-05-21T03:49:07.639Z,99172.00
2018-05-21T03:51:36.001Z,99174.29
2018-05-21T03:54:04.389Z,99171.43
2018-05-21T03:56:32.738Z,99177.78
2018-05-21T03:59:12.747Z,99177.73
2018-05-21T04:01:53.425Z,99170.95
2018-05-21T04:04:22.412Z,99177.42
2018-05-21T04:06:50.758Z,99173.80
2018-05-21T04:09:19.102Z,99168.99
2018-05-21T04:11:47.564Z,99162.97
2018-05-21T04:14:17.439Z,99170.30
2018-05-21T04:16:45.788Z,99167.42
2018-05-21T04:19:14.168Z,99161.05
2018-05-21T04:21:42.531Z,99164.72
2018-05-21T04:24:11.242Z,99164.27
2018-05-21T04:26:39.600Z,99160.27
2018-05-21T04:29:09.082Z,99156.54
2018-05-21T04:31:37.966Z,99155.69
2018-05-21T04:34:08.338Z,99157.45
2018-05-21T04:36:36.713Z,99161.38
2018-05-21T04:39:05.821Z,99160.01
2018-05-21T04:41:34.237Z,99161.23
2018-05-21T04:44:02.585Z,99163.70
2018-05-21T04:46:31.679Z,99164.03
2018-05-21T04:49:00.028Z,99159.77
2018-05-21T04:51:28.891Z,99163.02
2018-05-21T04:53:57.332Z,99160.09
2018-05-21T04:56:25.656Z,99154.75
2018-05-21T04:58:55.349Z,99156.89
2018-05-21T05:01:23.680Z,99156.41
2018-05-21T05:03:52.035Z,99164.80
2018-05-21T05:06:20.401Z,99159.55
2018-05-21T05:08:48.755Z,99164.50
2018-05-21T05:11:17.107Z,99171.08
2018-05-21T05:13:45.997Z,99166.67
2018-05-21T05:16:14.319Z,99162.69
2018-05-21T05:18:42.725Z,99162.14
2018-05-21T05:21:12.350Z,99155.45
2018-05-21T05:23:40.669Z,99158.56
2018-05-21T05:26:10.903Z,99155.95
2018-05-21T05:28:39.256Z,99157.52
2018-05-21T05:31:08.929Z,99153.89
2018-05-21T05:33:37.616Z,99150.91
2018-05-21T05:36:07.550Z,99155.44
2018-05-21T05:38:36.155Z,99152.38
2018-05-21T05:41:05.267Z,99154.95
2018-05-21T05:43:33.937Z,99149.92
2018-05-21T05:46:02.511Z,99147.73
2018-05-21T05:48:31.211Z,99152.63
2018-05-21T05:50:59.789Z,99153.36
2018-05-21T05:53:28.142Z,99149.98
2018-05-21T05:55:56.483Z,99148.58
2018-05-21T05:58:24.852Z,99146.42
2018-05-21T06:00:53.221Z,99142.75
2018-05-21T06:03:22.043Z,99143.41
2018-05-21T06:05:51.274Z,99138.91
2018-05-21T06:08:19.667Z,99140.77
2018-05-21T06:10:49.625Z,99141.89
2018-05-21T06:13:17.984Z,99139.85
2018-05-21T06:15:46.359Z,99134.63
2018-05-21T06:18:14.681Z,99142.59
2018-05-21T06:20:43.653Z,99135.88
2018-05-21T06:23:13.444Z,99134.11
2018-05-21T06:25:42.069Z,99131.23
2018-05-21T06:28:11.023Z,99123.83
2018-05-21T06:30:39.389Z,99120.98
2018-05-21T06:33:07.719Z,99123.75
2018-05-21T06:35:37.148Z,99120.87
2018-05-21T06:38:06.245Z,99116.18
2018-05-21T06:40:34.596Z,99119.43
2018-05-21T06:43:02.968Z,99114.39
2018-05-21T06:45:31.337Z,99114.66
2018-05-21T06:47:59.897Z,99110.98
2018-05-21T06:50:28.668Z,99106.77
2018-05-21T06:52:56.988Z,99107.66
2018-05-21T06:55:26.261Z,99109.59
2018-05-21T06:57:56.686Z,99109.64
2018-05-21T07:00:26.063Z,99116.65
2018-05-21T07:02:54.385Z,99112.27
2018-05-21T07:05:23.175Z,99115.75
2018-05-21T07:07:53.390Z,99105.08
2018-05-21T07:10:21.720Z,99111.30
2018-05-21T07:12:50.217Z,99102.08
2018-05-21T07:15:18.862Z,99103.58
2018-05-21T07:17:48.925Z,99108.28
2018-05-21T07:20:17.610Z,99100.83
2018-05-21T07:22:47.193Z,99098.83
2018-05-21T07:25:17.403Z,99101.54
2018-05-21T07:27:45.726Z,99099.27
2018-05-21T07:30:15.198Z,99098.73
2018-05-21T07:32:43.522Z,99092.45
2018-05-21T07:35:11.928Z,99087.91
2018-05-21T07:37:41.070Z,99092.66
2018-05-21T07:40:09.434Z,99088.69
2018-05-21T07:42:38.534Z,99086.21
2018-05-21T07:45:07.222Z,99087.33
2018-05-21T07:47:35.597Z,99083.81
2018-05-21T07:50:03.930Z,99083.36
2018-05-21T07:52:32.292Z,99081.67
2018-05-21T07:55:00.622Z,99074.53
2018-05-21T07:57:29.313Z,99079.89
2018-05-21T07:59:58.380Z,99081.16
2018-05-21T08:02:26.740Z,99078.63
2018-05-21T08:04:55.082Z,99073.52
2018-05-21T08:07:23.440Z,99074.61
2018-05-21T08:09:52.540Z,99067.63
2018-05-21T08:12:20.901Z,99065.52
2018-05-21T08:14:49.368Z,99058.84
2018-05-21T08:17:17.820Z,99065.90
2018-05-21T08:19:46.191Z,99063.63
2018-05-21T08:22:14.648Z,99055.52
2018-05-21T08:24:43.905Z,99054.09
2018-05-21T08:27:12.305Z,99057.36
2018-05-21T08:29:41.336Z,99048.66
2018-05-21T08:32:10.667Z,99041.92
2018-05-21T08:34:39.059Z,99041.80
2018-05-21T08:37:09.120Z,99047.92
2018-05-21T08:39:37.459Z,99040.03
2018-05-21T08:42:06.613Z,99038.90
2018-05-21T08:44:34.949Z,99031.19
2018-05-21T08:47:04.947Z,99037.55
2018-05-21T08:49:33.655Z,99034.34
2018-05-21T08:52:02.014Z,99032.04
2018-05-21T08:54:30.955Z,99030.19
2018-05-21T08:56:59.540Z,99024.22
2018-05-21T08:59:28.816Z,99025.08
2018-05-21T09:01:57.158Z,99018.91
2018-05-21T09:04:25.569Z,99016.52
2018-05-21T09:06:53.886Z,99011.81
2018-05-21T09:09:22.292Z,99013.56
2018-05-21T09:11:51.369Z,99004.13
2018-05-21T09:14:19.756Z,99011.13
2018-05-21T09:16:48.076Z,98997.36
2018-05-21T09:19:17.392Z,99000.48
2018-05-21T09:21:45.742Z,98995.69
2018-05-21T09:24:14.090Z,98989.30
2018-05-21T09:26:42.472Z,98990.03
2018-05-21T09:29:10.837Z,98974.57
2018-05-21T09:31:39.582Z,98981.09
2018-05-21T09:34:09.905Z,98970.83
2018-05-21T09:36:38.233Z,98967.57
2018-05-21T09:39:06.716Z,98963.45
2018-05-21T09:41:35.062Z,98971.00
2018-05-21T09:44:03.462Z,98969.22
2018-05-21T09:46:33.023Z,98956.16
2018-05-21T09:49:02.126Z,98954.27
2018-05-21T09:51:31.367Z,98955.55
2018-05-21T09:53:59.740Z,98956.25
2018-05-21T09:56:28.693Z,98946.25
2018-05-21T09:58:57.108Z,98943.36
2018-05-21T10:01:25.651Z,98946.27
2018-05-21T10:03:54.389Z,98941.82
2018-05-21T10:06:22.727Z,98940.83
2018-05-21T10:08:51.077Z,98940.73
2018-05-21T10:11:19.417Z,98943.20
2018-05-21T10:13:48.683Z,98935.48
2018-05-21T10:16:18.133Z,98936.05
2018-05-21T10:18:46.526Z,98940.50
2018-05-21T10:21:15.781Z,98927.28
2018-05-21T10:23:44.646Z,98933.34
2018-05-21T10:26:13.805Z,98922.90
2018-05-21T10:28:42.992Z,98930.37
2018-05-21T10:31:11.556Z,98930.85
2018-05-21T10:33:39.910Z,98923.58
2018-05-21T10:36:08.252Z,98928.27
2018-05-21T10:38:36.624Z,98922.89
2018-05-21T10:41:06.382Z,98920.70
2018-05-21T10:43:34.727Z,98917.89
2018-05-21T10:46:03.074Z,98907.67
2018-05-21T10:48:32.210Z,98910.28
2018-05-21T10:51:01.080Z,98909.21
2018-05-21T10:53:30.002Z,98904.31
2018-05-21T10:55:58.443Z,98898.87
2018-05-21T10:58:26.857Z,98893.16
2018-05-21T11:00:55.188Z,98879.05
2018-05-21T11:03:23.534Z,98879.22
2018-05-21T11:05:51.870Z,98877.60
2018-05-21T11:08:20.183Z,98874.14
2018-05-21T11:10:48.530Z,98878.23
2018-05-21T11:13:16.905Z,98874.77
2018-05-21T11:15:45.995Z,98867.29
2018-05-21T11:18:14.328Z,98863.80
2018-05-21T11:20:42.680Z,98861.22
2018-05-21T11:23:11.019Z,98861.03
2018-05-21T11:25:39.513Z,98864.61
2018-05-21T11:28:08.486Z,98863.84
2018-05-21T11:30:39.381Z,98861.58
2018-05-21T11:33:07.710Z,98863.02
2018-05-21T11:35:36.144Z,98854.00
2018-05-21T11:38:04.471Z,98848.42
2018-05-21T11:40:32.876Z,98848.03
2018-05-21T11:43:02.060Z,98847.54
2018-05-21T11:45:30.459Z,98844.72
2018-05-21T11:47:59.650Z,98838.93
2018-05-21T11:50:29.831Z,98840.42
2018-05-21T11:52:58.324Z,98841.25
2018-05-21T11:55:28.080Z,98839.37
2018-05-21T11:57:56.405Z,98838.83
2018-05-21T12:00:24.813Z,98835.08
2018-05-21T12:02:53.145Z,98832.86
2018-05-21T12:05:21.821Z,98833.39
2018-05-21T12:07:50.980Z,98835.98
2018-05-21T12:10:21.301Z,98834.10
2018-05-21T12:12:50.493Z,98835.81
2018-05-21T12:15:18.875Z,98826.98
2018-05-21T12:17:48.147Z,98829.36
2018-05-21T12:20:16.497Z,98831.52
2018-05-21T12:22:46.176Z,98826.75
2018-05-21T12:25:14.526Z,98820.66
2018-05-21T12:27:43.229Z,98819.33
2018-05-21T12:30:11.581Z,98811.37
2018-05-21T12:32:39.917Z,98810.45
2018-05-21T12:35:09.896Z,98809.95
2018-05-21T12:37:38.899Z,98810.14
2018-05-21T12:40:07.300Z,98804.52
2018-05-21T12:42:35.643Z,98806.59
2018-05-21T12:45:04.017Z,98804.05
2018-05-21T12:47:32.669Z,98795.52
2018-05-21T12:50:03.212Z,98805.61
2018-05-21T12:52:31.536Z,98805.07
2018-05-21T12:55:01.304Z,98795.50
2018-05-21T12:57:30.589Z,98795.62
2018-05-21T12:59:59.770Z,98792.80
2018-05-21T13:02:29.289Z,98787.56
2018-05-21T13:04:58.040Z,98791.70
2018-05-21T13:07:26.369Z,98777.96
2018-05-21T13:09:56.738Z,98782.92
2018-05-21T13:12:25.925Z,98777.66
2018-05-21T13:14:55.163Z,98774.63
2018-05-21T13:17:23.485Z,98764.09
2018-05-21T13:19:51.837Z,98762.30
2018-05-21T13:22:21.778Z,98760.22
2018-05-21T13:24:50.185Z,98765.92
2018-05-21T13:27:19.041Z,98766.33
2018-05-21T13:29:47.879Z,98760.89
2018-05-21T13:32:16.974Z,98756.86
2018-05-21T13:34:45.736Z,98756.05
2018-05-21T13:37:15.750Z,98750.58
2018-05-21T13:39:44.920Z,98750.15
2018-05-21T13:42:13.669Z,98750.77
2018-05-21T13:44:42.012Z,98741.83
2018-05-21T13:47:10.415Z,98739.69
2018-05-21T13:49:38.769Z,98736.84
2018-05-21T13:52:07.103Z,98735.66
2018-05-21T13:54:35.707Z,98737.80
2018-05-21T13:57:06.096Z,98734.58
2018-05-21T13:59:34.497Z,98732.91
2018-05-21T14:02:04.675Z,98726.02
2018-05-21T14:04:33.544Z,98721.67
2018-05-21T14:10:02.457Z,98723.48
2018-05-21T14:12:31.593Z,98719.55
2018-05-21T14:15:00.339Z,98711.38
2018-05-21T14:17:29.621Z,98717.47
2018-05-21T14:19:58.882Z,98713.78
2018-05-21T14:22:28.066Z,98717.84
2018-05-21T14:24:57.351Z,98717.48
2018-05-21T14:27:25.687Z,98715.36
2018-05-21T14:29:54.955Z,98707.67
2018-05-21T14:32:23.575Z,98710.64
2018-05-21T14:34:52.777Z,98704.67
2018-05-21T14:37:21.143Z,98704.95
2018-05-21T14:39:49.530Z,98701.60
2018-05-21T14:42:18.910Z,98695.59
2018-05-21T14:44:47.254Z,98695.17
2018-05-21T14:47:15.921Z,98691.73
2018-05-21T14:49:44.276Z,98694.17
2018-05-21T14:52:12.989Z,98684.13
2018-05-21T14:54:41.601Z,98685.71
2018-05-21T14:57:11.735Z,98683.84
2018-05-21T14:59:40.078Z,98680.77
2018-05-21T15:02:09.185Z,98679.54
2018-05-21T15:04:38.348Z,98676.88
2018-05-21T15:07:06.671Z,98673.66
2018-05-21T15:09:35.434Z,98668.67
2018-05-21T15:12:04.668Z,98674.59
2018-05-21T15:14:33.036Z,98671.69
2018-05-21T15:17:01.387Z,98663.79
2018-05-21T15:19:29.775Z,98664.34
2018-05-21T15:21:59.083Z,98665.88
2018-05-21T15:24:27.425Z,98663.45
2018-05-21T15:26:55.770Z,98660.31
2018-05-21T15:29:25.091Z,98666.64
2018-05-21T15:31:53.839Z,98658.64
2018-05-21T15:34:22.176Z,98651.48
2018-05-21T15:36:50.539Z,98651.27
2018-05-21T15:39:19.348Z,98644.59
2018-05-21T15:41:47.702Z,98645.64
2018-05-21T15:44:17.325Z,98639.99
2018-05-21T15:46:45.699Z,98640.94
2018-05-21T15:49:14.491Z,98635.33
2018-05-21T15:51:44.665Z,98642.67
2018-05-21T15:54:13.108Z,98632.84
2018-05-21T15:56:41.461Z,98632.14
2018-05-21T15:59:09.781Z,98626.48
2018-05-21T16:01:38.125Z,98622.39
2018-05-21T16:04:07.417Z,98626.29
2018-05-21T16:06:36.343Z,98633.28
2018-05-21T16:09:04.747Z,98626.72
2018-05-21T16:11:33.383Z,98630.02
2018-05-21T16:14:02.503Z,98627.78
2018-05-21T16:16:30.873Z,98633.52
2018-05-21T16:19:00.051Z,98626.14
2018-05-21T16:21:28.401Z,98628.44
2018-05-21T16:23:57.949Z,98627.63
2018-05-21T16:26:27.296Z,98625.97
2018-05-21T16:28:56.521Z,98620.06
2018-05-21T16:31:25.310Z,98614.64
2018-05-21T16:33:53.639Z,98620.40
2018-05-21T16:36:22.823Z,98619.39
2018-05-21T16:38:52.081Z,98615.39
2018-05-21T16:41:20.459Z,98617.50
2018-05-21T16:43:48.908Z,98610.08
2018-05-21T16:46:17.320Z,98606.65
2018-05-21T16:48:48.268Z,98614.33
2018-05-21T16:51:17.617Z,98616.55
2018-05-21T16:53:46.738Z,98614.72
2018-05-21T16:56:17.793Z,98614.37
2018-05-21T16:58:46.395Z,98617.03
2018-05-21T17:01:15.612Z,98615.61
2018-05-21T17:03:44.042Z,98620.38
2018-05-21T17:06:14.025Z,98615.80
2018-05-21T17:08:43.415Z,98608.34
2018-05-21T17:11:12.510Z,98612.50
2018-05-21T17:13:41.128Z,98613.56
2018-05-21T17:16:10.647Z,98611.73
2018-05-21T17:18:39.027Z,98606.26
2018-05-21T17:21:07.420Z,98611.84
2018-05-21T17:23:39.688Z,98609.24
2018-05-21T17:26:08.041Z,98605.94
2018-05-21T17:28:38.256Z,98603.86
2018-05-21T17:31:07.796Z,98607.98
2018-05-21T17:33:37.311Z,98604.36
2018-05-21T17:36:10.305Z,98605.89
2018-05-21T17:38:38.839Z,98604.34
2018-05-21T17:41:08.110Z,98604.38
2018-05-21T17:43:37.591Z,98607.58
2018-05-21T17:46:05.973Z,98607.78
2018-05-21T17:48:34.345Z,98608.17
2018-05-21T17:51:03.342Z,98604.64
2018-05-21T17:53:32.111Z,98606.02
2018-05-21T17:56:01.709Z,98612.13
2018-05-21T17:58:30.035Z,98601.02
2018-05-21T18:00:58.693Z,98601.56
2018-05-21T18:03:27.018Z,98606.27
2018-05-21T18:05:55.640Z,98612.61
2018-05-21T18:08:24.226Z,98611.70
2018-05-21T18:10:53.947Z,98612.41
2018-05-21T18:13:22.255Z,98622.95
2018-05-21T18:15:50.652Z,98617.83
2018-05-21T18:18:21.376Z,98621.45
2018-05-21T18:20:50.151Z,98617.20
2018-05-21T18:23:18.741Z,98618.29
2018-05-21T18:25:47.075Z,98618.19
2018-05-21T18:28:15.400Z,98622.46
2018-05-21T18:30:44.771Z,98625.59
2018-05-21T18:33:13.104Z,98625.35
2018-05-21T18:35:41.491Z,98624.77
2018-05-21T18:38:12.671Z,98618.97
2018-05-21T18:40:41.051Z,98623.83
2018-05-21T18:43:11.192Z,98624.48
2018-05-21T18:45:39.559Z,98622.75
2018-05-21T18:48:07.925Z,98623.98
2018-05-21T18:50:37.849Z,98625.44
2018-05-21T18:53:06.208Z,98620.92
2018-05-21T18:55:34.563Z,98616.19
2018-05-21T18:58:03.696Z,98625.03
2018-05-21T19:00:32.758Z,98617.42
2018-05-21T19:03:01.515Z,98621.98
2018-05-21T19:05:29.869Z,98625.48
2018-05-21T19:07:58.576Z,98615.50
2018-05-21T19:10:27.952Z,98620.87
2018-05-21T19:12:57.967Z,98620.59
2018-05-21T19:15:26.348Z,98623.82
2018-05-21T19:17:54.820Z,98619.05
2018-05-21T19:20:24.315Z,98622.19
2018-05-21T19:22:52.661Z,98617.78
2018-05-21T19:25:21.023Z,98625.46
2018-05-21T19:27:50.306Z,98623.48
2018-05-21T19:30:19.301Z,98620.66
2018-05-21T19:32:48.333Z,98626.34
2018-05-21T19:35:17.050Z,98628.41
2018-05-21T19:37:47.991Z,98631.25
2018-05-21T19:40:16.727Z,98626.55
2018-05-21T19:42:45.909Z,98623.71
2018-05-21T19:45:16.109Z,98630.02
2018-05-21T19:47:45.290Z,98627.43
2018-05-21T19:50:13.975Z,98626.13
2018-05-21T19:52:43.156Z,98627.19
2018-05-21T19:55:11.872Z,98632.67
2018-05-21T19:57:41.123Z,98639.75
2018-05-21T20:00:11.422Z,98648.45
2018-05-21T20:02:39.766Z,98641.64
2018-05-21T20:05:09.825Z,98638.13
2018-05-21T20:07:39.495Z,98648.56
2018-05-21T20:10:08.551Z,98642.38
2018-05-21T20:12:37.394Z,98645.34
2018-05-21T20:15:06.028Z,98650.78
2018-05-21T20:17:35.455Z,98645.24
2018-05-21T20:20:05.301Z,98650.05
2018-05-21T20:22:33.651Z,98652.52
2018-05-21T20:25:02.025Z,98654.01
2018-05-21T20:27:30.388Z,98657.45
2018-05-21T20:29:59.778Z,98655.27
2018-05-21T20:32:28.541Z,98653.02
2018-05-21T20:34:56.911Z,98655.59
2018-05-21T20:37:25.961Z,98655.22
2018-05-21T20:39:54.308Z,98657.81
2018-05-21T20:42:23.164Z,98650.39
2018-05-21T20:44:52.421Z,98649.81
2018-05-21T20:47:20.788Z,98646.78
2018-05-21T20:49:49.146Z,98651.87
2018-05-21T20:52:17.512Z,98651.03
2018-05-21T20:54:47.552Z,98645.94
2018-05-21T20:57:16.071Z,98648.22
2018-05-21T20:59:44.421Z,98645.05
2018-05-21T21:02:12.805Z,98645.13
2018-05-21T21:04:41.149Z,98650.03
2018-05-21T21:07:10.321Z,98648.96
2018-05-21T21:09:39.609Z,98643.55
2018-05-21T21:12:08.738Z,98647.20
2018-05-21T21:14:37.077Z,98642.25
2018-05-21T21:17:05.417Z,98643.98
2018-05-21T21:19:33.768Z,98642.56
2018-05-21T21:22:03.976Z,98639.84
2018-05-21T21:24:33.561Z,98634.97
2018-05-21T21:27:02.105Z,98632.03
2018-05-21T21:29:30.510Z,98631.95
2018-05-21T21:31:59.765Z,98627.72
2018-05-21T21:34:28.508Z,98634.44
2018-05-21T21:36:57.097Z,98634.67
2018-05-21T21:39:26.222Z,98625.70
2018-05-21T21:41:55.527Z,98632.89
2018-05-21T21:44:23.933Z,98623.58
2018-05-21T21:46:56.538Z,98627.88
2018-05-21T21:49:25.375Z,98622.48
2018-05-21T21:51:54.479Z,98625.84
2018-05-21T21:54:23.453Z,98629.98
2018-05-21T21:56:52.057Z,98631.44
2018-05-21T21:59:21.204Z,98631.33
2018-05-21T22:01:50.239Z,98625.95
2018-05-21T22:04:18.677Z,98627.27
2018-05-21T22:06:47.395Z,98626.63
2018-05-21T22:09:16.501Z,98626.61
2018-05-21T22:11:44.861Z,98623.50
2018-05-21T22:14:13.236Z,98617.38
2018-05-21T22:16:41.593Z,98624.52
2018-05-21T22:19:09.915Z,98623.01
2018-05-21T22:21:38.973Z,98620.46
2018-05-21T22:24:09.076Z,98614.53
2018-05-21T22:26:38.261Z,98610.90
2018-05-21T22:29:07.641Z,98619.75
2018-05-21T22:31:36.352Z,98606.79
2018-05-21T22:34:04.664Z,98619.64
2018-05-21T22:36:33.748Z,98611.16
2018-05-21T22:39:02.899Z,98607.53
2018-05-21T22:41:31.279Z,98607.39
2018-05-21T22:44:00.898Z,98604.34
2018-05-21T22:46:30.526Z,98608.06
2018-05-21T22:48:58.863Z,98607.21
2018-05-21T22:51:27.477Z,98613.20
2018-05-21T22:53:55.824Z,98606.38
2018-05-21T22:56:24.157Z,98607.35
2018-05-21T22:58:53.661Z,98603.05
2018-05-21T23:01:22.241Z,98602.12
2018-05-21T23:03:50.623Z,98601.97
2018-05-21T23:06:19.949Z,98597.16
2018-05-21T23:08:48.820Z,98606.05
2018-05-21T23:11:18.258Z,98593.53
2018-05-21T23:13:46.746Z,98600.63
2018-05-21T23:16:16.142Z,98592.27
2018-05-21T23:18:44.876Z,98599.24
2018-05-21T23:21:14.124Z,98593.39
2018-05-21T23:23:42.468Z,98592.05
2018-05-21T23:26:11.969Z,98590.45
2018-05-21T23:28:40.342Z,98588.92
2018-05-21T23:31:08.869Z,98591.19
2018-05-21T23:33:38.138Z,98589.94
2018-05-21T23:36:07.494Z,98592.78
2018-05-21T23:38:37.438Z,98586.67
2018-05-21T23:41:07.111Z,98585.81
2018-05-21T23:43:35.458Z,98586.83
2018-05-21T23:46:03.835Z,98587.56
2018-05-21T23:48:33.087Z,98580.94
2018-05-21T23:51:02.284Z,98580.63
2018-05-21T23:53:30.633Z,98588.77
2018-05-21T23:55:59.603Z,98583.72
2018-05-21T23:58:27.964Z,98585.13
